»·PEaware :: UAL250 KPDX-KSFO

UAL250 :: KPDX-KSFO

FLIGHT INFORMATION

Flight Status: Arrived
Operator:
United Airlines
More flights by this operator :: More flights under this callsign
Pilot: Andrew J. (13363)
Aircraft: BOEING 737-800
(B738)
More flights by this aircraft type
Origin: KPDX Portland Intl
United States
Destination: KSFO San Francisco Intl
United States
More flights between these airports :: More routes between these airports
Route: +MINNE5 FAMUK Q3 FOWND MLBEC BDEGA2
File this flight plan on PilotEdge
Remarks:
Altitude:
(Current/Filed)
33,000ft
Speed:
(Current/Filed)
470kts
Departed: 05-Jan-18 06:56 PM
Arrived: 05-Jan-18 08:31 PM
Distance/Time
Traveled:
478nm/1:34
Distance/Time
To Go:
Arrived

Flight Plot

Page will automatically refresh every two minutes.


Map Options




Map Legend


Flown Route
Filed Route
Departure Airport
Arrival Airport
Navaid (VOR, NDB)
Fix

Horizontal Profiles

Position Reports

Time Latitude Longitude Heading Altitude Ground
Speed
05-Jan-18 18:46 45.588794 -122.587210 118 23ft 0kts
05-Jan-18 18:47 45.588794 -122.587210 118 23ft 0kts
05-Jan-18 18:48 45.588794 -122.587210 118 23ft 0kts
05-Jan-18 18:49 45.588794 -122.587210 118 23ft 0kts
05-Jan-18 18:50 45.588794 -122.587210 118 23ft 0kts
05-Jan-18 18:51 45.588794 -122.587210 118 23ft 0kts
05-Jan-18 18:52 45.588794 -122.587210 118 23ft 0kts
05-Jan-18 18:53 45.588793 -122.587210 118 23ft 0kts
05-Jan-18 18:54 45.588793 -122.587210 118 23ft 0kts
05-Jan-18 18:55 45.588791 -122.587205 116 23ft 0kts
05-Jan-18 18:56 45.589369 -122.587335 296 23ft 8kts
05-Jan-18 18:57 45.591052 -122.591415 298 23ft 15kts
05-Jan-18 18:58 45.593287 -122.597144 297 23ft 14kts
05-Jan-18 18:59 45.594545 -122.597368 52 23ft 0kts
05-Jan-18 19:00 45.594595 -122.597272 52 23ft 1kts
05-Jan-18 19:01 45.594849 -122.595706 117 23ft 0kts
05-Jan-18 19:02 45.585529 -122.573021 116 322ft 145kts
05-Jan-18 19:03 45.571837 -122.519713 94 2611ft 157kts
05-Jan-18 19:04 45.564019 -122.446986 102 3997ft 237kts
05-Jan-18 19:05 45.545895 -122.356040 115 7408ft 250kts
05-Jan-18 19:06 45.482802 -122.317837 168 10636ft 278kts
05-Jan-18 19:07 45.414014 -122.368534 236 12801ft 312kts
05-Jan-18 19:08 45.379620 -122.476754 242 14873ft 296kts
05-Jan-18 19:09 45.345232 -122.584073 244 18324ft 306kts
05-Jan-18 19:10 45.310336 -122.692688 243 21468ft 320kts
05-Jan-18 19:11 45.279208 -122.789710 244 24013ft 330kts
05-Jan-18 19:12 45.232962 -122.928914 233 27381ft 339kts
05-Jan-18 19:13 45.148341 -122.982491 198 30373ft 345kts
05-Jan-18 19:14 45.071195 -123.003177 196 32531ft 340kts
05-Jan-18 19:15 44.957714 -123.030119 195 33084ft 382kts
05-Jan-18 19:16 44.870148 -123.050385 195 33133ft 408kts
05-Jan-18 19:17 44.759602 -123.075854 195 33131ft 403kts
05-Jan-18 19:18 44.630926 -123.105599 195 33129ft 403kts
05-Jan-18 19:19 44.539275 -123.126787 195 33153ft 403kts
05-Jan-18 19:20 44.426223 -123.133804 185 33154ft 413kts
05-Jan-18 19:21 44.312057 -123.129320 185 33153ft 412kts
05-Jan-18 19:22 44.198259 -123.125320 185 33152ft 413kts
05-Jan-18 19:23 44.083610 -123.121338 185 33177ft 413kts
05-Jan-18 19:24 43.969310 -123.117374 185 33176ft 413kts
05-Jan-18 19:25 43.856514 -123.113460 185 33185ft 413kts
05-Jan-18 19:26 43.742189 -123.109487 185 33184ft 413kts
05-Jan-18 19:27 43.627324 -123.105510 185 33183ft 413kts
05-Jan-18 19:28 43.513194 -123.101551 185 33235ft 414kts
05-Jan-18 19:29 43.398285 -123.097563 185 33235ft 414kts
05-Jan-18 19:30 43.283358 -123.093576 185 33234ft 414kts
05-Jan-18 19:31 43.168571 -123.089593 185 33233ft 414kts
05-Jan-18 19:32 43.053643 -123.085606 185 33232ft 414kts
05-Jan-18 19:33 42.938658 -123.081615 185 33231ft 415kts
05-Jan-18 19:34 42.826202 -123.077710 185 33240ft 414kts
05-Jan-18 19:35 42.711351 -123.073724 185 33212ft 414kts
05-Jan-18 19:36 42.597111 -123.069761 185 33211ft 414kts
05-Jan-18 19:37 42.482473 -123.065784 185 33209ft 414kts
05-Jan-18 19:38 42.367468 -123.062074 185 33208ft 413kts
05-Jan-18 19:39 42.252826 -123.058418 185 33207ft 413kts
05-Jan-18 19:40 42.138413 -123.054768 185 33206ft 413kts
05-Jan-18 19:41 42.023946 -123.051118 185 33205ft 412kts
05-Jan-18 19:42 41.909854 -123.047479 185 33203ft 412kts
05-Jan-18 19:43 41.799775 -123.043967 185 33213ft 412kts
05-Jan-18 19:44 41.686286 -123.040348 185 33185ft 411kts
05-Jan-18 19:45 41.572039 -123.036704 186 33184ft 411kts
05-Jan-18 19:46 41.459820 -123.033125 186 33182ft 411kts
05-Jan-18 19:47 41.346310 -123.029505 186 33205ft 411kts
05-Jan-18 19:48 41.249977 -122.948365 121 33233ft 487kts
05-Jan-18 19:49 41.155664 -122.861280 188 33238ft 408kts
05-Jan-18 19:50 41.042977 -122.865955 189 33207ft 407kts
05-Jan-18 19:51 40.930245 -122.870915 189 33205ft 406kts
05-Jan-18 19:52 40.820257 -122.875740 189 33215ft 406kts
05-Jan-18 19:53 40.708473 -122.880632 189 33214ft 406kts
05-Jan-18 19:54 40.595781 -122.885550 189 33213ft 406kts
05-Jan-18 19:55 40.483313 -122.890445 189 33211ft 406kts
05-Jan-18 19:56 40.371452 -122.895299 189 33210ft 406kts
05-Jan-18 19:57 40.258621 -122.900182 189 33209ft 406kts
05-Jan-18 19:58 40.146937 -122.904980 189 33207ft 404kts
05-Jan-18 19:59 40.035072 -122.909794 189 33206ft 404kts
05-Jan-18 20:00 39.922860 -122.914606 189 33204ft 404kts
05-Jan-18 20:01 39.820669 -122.918971 189 33215ft 401kts
05-Jan-18 20:02 39.709078 -122.923735 189 33214ft 401kts
05-Jan-18 20:03 39.598215 -122.928421 190 33215ft 399kts
05-Jan-18 20:04 39.490214 -122.933039 189 33238ft 400kts
05-Jan-18 20:05 39.379324 -122.937735 189 33236ft 400kts
05-Jan-18 20:06 39.268661 -122.942412 189 33235ft 400kts
05-Jan-18 20:07 39.157784 -122.947079 189 33230ft 396kts
05-Jan-18 20:08 39.058337 -122.950975 190 32540ft 334kts
05-Jan-18 20:09 38.965649 -122.955057 190 30883ft 341kts
05-Jan-18 20:10 38.881260 -122.958670 188 29362ft 347kts
05-Jan-18 20:11 38.809345 -122.940079 175 28251ft 364kts
05-Jan-18 20:12 38.711030 -122.910590 175 26749ft 369kts
05-Jan-18 20:13 38.611792 -122.881175 175 25238ft 366kts
05-Jan-18 20:14 38.513547 -122.852188 175 23747ft 360kts
05-Jan-18 20:15 38.417968 -122.824139 175 22295ft 352kts
05-Jan-18 20:16 38.324158 -122.796637 174 20870ft 344kts
05-Jan-18 20:17 38.232096 -122.769647 174 19471ft 337kts
05-Jan-18 20:18 38.147356 -122.745008 174 18185ft 331kts
05-Jan-18 20:19 38.058951 -122.719383 173 16588ft 322kts
05-Jan-18 20:20 37.973596 -122.694661 173 15290ft 317kts
05-Jan-18 20:21 37.891499 -122.665040 152 14028ft 325kts
05-Jan-18 20:22 37.824569 -122.594058 145 12746ft 321kts
05-Jan-18 20:23 37.760421 -122.525850 145 11571ft 296kts
05-Jan-18 20:24 37.700639 -122.462428 145 10988ft 284kts
05-Jan-18 20:25 37.641269 -122.399339 144 10076ft 282kts
05-Jan-18 20:26 37.579090 -122.351403 154 8523ft 269kts
05-Jan-18 20:27 37.515466 -122.305938 153 6889ft 270kts
05-Jan-18 20:28 37.450166 -122.264313 153 5192ft 262kts
05-Jan-18 20:29 37.426382 -122.195878 73 3982ft 230kts
05-Jan-18 20:30 37.458281 -122.145131 33 4029ft 186kts
05-Jan-18 20:31 37.504804 -122.141133 323 3145ft 188kts
05-Jan-18 20:32 37.538296 -122.184603 298 2990ft 176kts
05-Jan-18 20:33 37.561307 -122.238745 298 2144ft 174kts
05-Jan-18 20:34 37.581801 -122.287342 298 1290ft 142kts
05-Jan-18 20:35 37.600150 -122.330969 299 565ft 141kts
05-Jan-18 20:36 37.615575 -122.367638 298 21ft 125kts
05-Jan-18 20:37 37.619541 -122.379526 239 20ft 1kts
05-Jan-18 20:38 37.619157 -122.380662 288 20ft 5kts
05-Jan-18 20:39 37.619211 -122.380874 287 20ft 0kts
05-Jan-18 20:40 37.619226 -122.382596 236 20ft 8kts
05-Jan-18 20:41 37.619188 -122.383512 290 20ft 0kts
05-Jan-18 20:42 37.619188 -122.383512 290 20ft 0kts
05-Jan-18 20:43 37.619188 -122.383512 290 20ft 0kts

Navigation Log

Ident Type
Flight plan parsing failed, navigation log unavailable